createdAt,value
2018-07-26T00:01:12.835Z,95148.22
2018-07-26T00:03:42.148Z,95146.80
2018-07-26T00:06:11.516Z,95149.18
2018-07-26T00:08:40.906Z,95146.75
2018-07-26T00:11:10.187Z,95150.61
2018-07-26T00:13:39.546Z,95145.66
2018-07-26T00:16:08.864Z,95148.09
2018-07-26T00:18:38.447Z,95142.25
2018-07-26T00:21:07.852Z,95147.74
2018-07-26T00:23:37.199Z,95146.10
2018-07-26T00:26:06.744Z,95151.26
2018-07-26T00:28:36.042Z,95145.22
2018-07-26T00:31:05.434Z,95146.26
2018-07-26T00:33:34.720Z,95143.34
2018-07-26T00:36:03.998Z,95142.94
2018-07-26T00:38:33.359Z,95146.41
2018-07-26T00:41:02.704Z,95146.64
2018-07-26T00:43:32.049Z,95146.45
2018-07-26T00:46:01.337Z,95144.30
2018-07-26T00:48:30.651Z,95143.56
2018-07-26T00:50:59.932Z,95145.34
2018-07-26T00:53:29.296Z,95144.52
2018-07-26T00:55:58.639Z,95152.48
2018-07-26T00:58:27.993Z,95147.42
2018-07-26T01:00:57.303Z,95149.68
2018-07-26T01:03:26.621Z,95155.70
2018-07-26T01:05:56.000Z,95153.80
2018-07-26T01:08:25.315Z,95158.77
2018-07-26T01:10:54.692Z,95151.72
2018-07-26T01:13:24.004Z,95155.61
2018-07-26T01:15:53.296Z,95155.95
2018-07-26T01:18:22.592Z,95151.52
2018-07-26T01:20:51.950Z,95152.72
2018-07-26T01:23:21.340Z,95157.57
2018-07-26T01:25:50.661Z,95153.56
2018-07-26T01:28:20.392Z,95153.21
2018-07-26T01:30:49.741Z,95154.05
2018-07-26T01:33:19.156Z,95148.58
2018-07-26T01:35:48.509Z,95151.13
2018-07-26T01:38:17.919Z,95155.91
2018-07-26T01:40:47.193Z,95145.55
2018-07-26T01:43:45.260Z,95151.31
2018-07-26T01:46:14.596Z,95151.06
2018-07-26T01:48:44.413Z,95144.45
2018-07-26T01:51:14.225Z,95149.34
2018-07-26T01:53:44.230Z,95147.64
2018-07-26T01:56:13.508Z,95145.45
2018-07-26T01:58:42.782Z,95149.00
2018-07-26T02:01:12.791Z,95147.67
2018-07-26T02:03:42.300Z,95147.02
2018-07-26T02:06:11.592Z,95144.05
2018-07-26T02:08:40.886Z,95140.80
2018-07-26T02:11:10.177Z,95145.03
2018-07-26T02:13:39.452Z,95150.88
2018-07-26T02:16:08.783Z,95147.46
2018-07-26T02:18:38.054Z,95148.47
2018-07-26T02:21:07.387Z,95145.87
2018-07-26T02:23:36.682Z,95146.26
2018-07-26T02:26:05.984Z,95145.99
2018-07-26T02:28:35.311Z,95153.86
2018-07-26T02:31:04.719Z,95149.91
2018-07-26T02:33:33.955Z,95146.84
2018-07-26T02:36:03.282Z,95151.23
2018-07-26T02:38:32.593Z,95149.27
2018-07-26T02:41:01.906Z,95150.31
2018-07-26T02:43:31.242Z,95150.00
2018-07-26T02:46:00.585Z,95156.27
2018-07-26T02:48:29.920Z,95148.59
2018-07-26T02:50:59.198Z,95155.52
2018-07-26T02:53:28.532Z,95151.24
2018-07-26T02:55:57.807Z,95153.28
2018-07-26T02:58:27.179Z,95151.19
2018-07-26T03:00:56.662Z,95146.26
2018-07-26T03:03:25.967Z,95153.14
2018-07-26T03:05:55.261Z,95154.61
2018-07-26T03:08:24.527Z,95158.56
2018-07-26T03:10:53.849Z,95159.28
2018-07-26T03:13:23.194Z,95159.88
2018-07-26T03:15:52.464Z,95153.67
2018-07-26T03:18:21.759Z,95158.61
2018-07-26T03:20:51.118Z,95156.55
2018-07-26T03:23:20.377Z,95158.42
2018-07-26T03:25:49.729Z,95156.28
2018-07-26T03:28:19.034Z,95155.16
2018-07-26T03:30:48.339Z,95153.95
2018-07-26T03:33:17.648Z,95155.15
2018-07-26T03:35:46.957Z,95157.64
2018-07-26T03:38:16.383Z,95158.05
2018-07-26T03:40:45.701Z,95154.42
2018-07-26T03:43:14.981Z,95158.05
2018-07-26T03:45:44.319Z,95158.46
2018-07-26T03:48:13.716Z,95162.56
2018-07-26T03:50:43.082Z,95162.00
2018-07-26T03:53:12.541Z,95158.49
2018-07-26T03:55:41.969Z,95160.55
2018-07-26T03:58:11.372Z,95161.72
2018-07-26T04:00:40.748Z,95160.23
2018-07-26T04:03:10.113Z,95164.73
2018-07-26T04:05:39.537Z,95169.81
2018-07-26T04:08:08.877Z,95159.61
2018-07-26T04:10:38.289Z,95166.22
2018-07-26T04:13:07.634Z,95163.18
2018-07-26T04:15:37.095Z,95167.80
2018-07-26T04:18:07.099Z,95171.93
2018-07-26T04:20:36.478Z,95172.80
2018-07-26T04:23:05.872Z,95172.62
2018-07-26T04:25:35.245Z,95172.44
2018-07-26T04:28:04.566Z,95169.64
2018-07-26T04:30:33.846Z,95174.35
2018-07-26T04:33:03.243Z,95175.48
2018-07-26T04:35:32.650Z,95179.03
2018-07-26T04:38:03.070Z,95175.84
2018-07-26T04:40:34.434Z,95171.52
2018-07-26T04:43:04.642Z,95174.18
2018-07-26T04:45:34.651Z,95177.78
2018-07-26T04:48:03.998Z,95176.73
2018-07-26T04:50:35.555Z,95180.70
2018-07-26T04:53:05.798Z,95175.87
2018-07-26T04:55:38.043Z,95178.84
2018-07-26T04:58:09.130Z,95175.73
2018-07-26T05:00:40.770Z,95175.06
2018-07-26T05:03:10.974Z,95183.16
2018-07-26T05:05:40.458Z,95180.69
2018-07-26T05:08:09.850Z,95182.14
2018-07-26T05:10:39.176Z,95187.12
2018-07-26T05:13:08.483Z,95185.83
2018-07-26T05:15:37.969Z,95182.39
2018-07-26T05:18:07.963Z,95186.38
2018-07-26T05:20:37.404Z,95184.16
2018-07-26T05:23:06.833Z,95179.77
2018-07-26T05:25:36.174Z,95179.89
2018-07-26T05:28:05.653Z,95184.40
2018-07-26T05:30:35.020Z,95178.62
2018-07-26T05:33:04.396Z,95180.22
2018-07-26T05:35:33.820Z,95184.23
2018-07-26T05:38:03.195Z,95181.55
2018-07-26T05:40:32.607Z,95183.61
2018-07-26T05:43:02.052Z,95177.48
2018-07-26T05:45:31.448Z,95174.33
2018-07-26T05:48:00.816Z,95178.59
2018-07-26T05:50:30.248Z,95178.23
2018-07-26T05:52:59.581Z,95180.20
2018-07-26T05:55:28.996Z,95179.62
2018-07-26T05:57:58.365Z,95183.56
2018-07-26T06:00:27.740Z,95182.44
2018-07-26T06:02:57.181Z,95187.16
2018-07-26T06:05:26.521Z,95184.09
2018-07-26T06:07:55.939Z,95185.97
2018-07-26T06:10:25.356Z,95186.78
2018-07-26T06:12:54.704Z,95193.46
2018-07-26T06:15:24.069Z,95189.09
2018-07-26T06:17:53.445Z,95180.55
2018-07-26T06:20:22.844Z,95183.37
2018-07-26T06:22:52.246Z,95188.67
2018-07-26T06:25:21.881Z,95188.94
2018-07-26T06:27:51.314Z,95183.25
2018-07-26T06:30:20.639Z,95184.29
2018-07-26T06:32:50.077Z,95190.62
2018-07-26T06:35:19.464Z,95192.97
2018-07-26T06:37:48.962Z,95192.12
2018-07-26T06:40:18.310Z,95190.48
2018-07-26T06:42:47.681Z,95187.70
2018-07-26T06:45:17.061Z,95188.84
2018-07-26T06:47:46.503Z,95184.20
2018-07-26T06:50:15.951Z,95189.44
2018-07-26T06:52:45.412Z,95184.47
2018-07-26T06:55:14.782Z,95193.69
2018-07-26T06:57:44.168Z,95191.84
2018-07-26T07:00:13.653Z,95187.92
2018-07-26T07:02:43.054Z,95192.97
2018-07-26T07:05:12.432Z,95196.53
2018-07-26T07:07:41.842Z,95194.34
2018-07-26T07:10:11.224Z,95195.84
2018-07-26T07:12:40.558Z,95192.81
2018-07-26T07:15:10.909Z,95199.63
2018-07-26T07:17:40.252Z,95196.44
2018-07-26T07:20:10.038Z,95184.62
2018-07-26T07:22:39.385Z,95185.81
2018-07-26T07:25:08.751Z,95192.97
2018-07-26T07:27:38.117Z,95192.10
2018-07-26T07:30:09.766Z,95191.43
2018-07-26T07:32:39.385Z,95192.67
2018-07-26T07:35:08.872Z,95190.67
2018-07-26T07:37:39.181Z,95191.27
2018-07-26T07:40:09.372Z,95194.75
2018-07-26T07:42:39.217Z,95194.45
2018-07-26T07:45:09.268Z,95187.48
2018-07-26T07:47:38.757Z,95188.69
2018-07-26T07:50:08.236Z,95194.77
2018-07-26T07:52:37.785Z,95195.02
2018-07-26T07:55:07.061Z,95200.80
2018-07-26T07:57:36.405Z,95190.27
2018-07-26T08:00:06.986Z,95196.16
2018-07-26T08:02:36.356Z,95191.24
2018-07-26T08:05:05.764Z,95188.08
2018-07-26T08:07:35.128Z,95193.44
2018-07-26T08:10:05.265Z,95195.97
2018-07-26T08:12:34.596Z,95196.39
2018-07-26T08:15:03.981Z,95199.59
2018-07-26T08:17:33.372Z,95204.45
2018-07-26T08:20:02.744Z,95199.77
2018-07-26T08:22:32.111Z,95202.62
2018-07-26T08:25:01.496Z,95200.06
2018-07-26T08:27:30.821Z,95206.00
2018-07-26T08:30:00.169Z,95200.72
2018-07-26T08:32:29.548Z,95206.80
2018-07-26T08:34:59.257Z,95211.30
2018-07-26T08:37:28.633Z,95208.38
2018-07-26T08:39:57.963Z,95209.41
2018-07-26T08:42:27.394Z,95210.38
2018-07-26T08:44:56.702Z,95205.83
2018-07-26T08:47:26.009Z,95214.25
2018-07-26T08:49:55.393Z,95212.80
2018-07-26T08:52:24.705Z,95210.39
2018-07-26T08:54:54.031Z,95210.12
2018-07-26T08:57:23.353Z,95210.14
2018-07-26T08:59:52.731Z,95219.55
2018-07-26T09:02:22.062Z,95217.06
2018-07-26T09:04:51.425Z,95209.63
2018-07-26T09:07:20.767Z,95205.75
2018-07-26T09:09:50.140Z,95196.86
2018-07-26T09:12:19.516Z,95196.95
2018-07-26T09:14:48.824Z,95205.52
2018-07-26T09:17:18.167Z,95208.69
2018-07-26T09:19:47.545Z,95200.72
2018-07-26T09:22:16.853Z,95198.98
2018-07-26T09:24:46.238Z,95204.28
2018-07-26T09:27:15.564Z,95192.69
2018-07-26T09:29:44.872Z,95200.17
2018-07-26T09:32:14.194Z,95198.84
2018-07-26T09:34:43.520Z,95200.97
2018-07-26T09:37:12.975Z,95201.50
2018-07-26T09:39:42.292Z,95198.02
2018-07-26T09:42:11.568Z,95192.94
2018-07-26T09:44:40.836Z,95193.13
2018-07-26T09:47:10.108Z,95199.78
2018-07-26T09:49:39.525Z,95196.30
2018-07-26T09:52:08.842Z,95189.03
2018-07-26T09:54:38.149Z,95198.89
2018-07-26T09:57:07.591Z,95198.84
2018-07-26T09:59:36.979Z,95192.16
2018-07-26T10:02:06.308Z,95189.17
2018-07-26T10:04:35.732Z,95194.45
2018-07-26T10:07:05.037Z,95187.23
2018-07-26T10:09:34.405Z,95186.88
2018-07-26T10:12:03.681Z,95193.23
2018-07-26T10:14:33.052Z,95189.20
2018-07-26T10:17:02.342Z,95181.45
2018-07-26T10:19:31.683Z,95179.77
2018-07-26T10:22:01.050Z,95170.84
2018-07-26T10:24:30.325Z,95184.36
2018-07-26T10:26:59.696Z,95186.70
2018-07-26T10:29:29.019Z,95179.77
2018-07-26T10:31:58.324Z,95177.67
2018-07-26T10:34:27.665Z,95178.00
2018-07-26T10:36:56.942Z,95175.55
2018-07-26T10:39:26.294Z,95171.30
2018-07-26T10:41:55.644Z,95180.77
2018-07-26T10:44:26.058Z,95175.92
2018-07-26T10:46:55.357Z,95172.91
2018-07-26T10:49:24.711Z,95172.27
2018-07-26T10:51:54.041Z,95176.47
2018-07-26T10:54:23.357Z,95170.72
2018-07-26T10:56:52.767Z,95167.52
2018-07-26T10:59:22.184Z,95164.92
2018-07-26T11:01:51.498Z,95170.53
2018-07-26T11:04:20.837Z,95172.22
2018-07-26T11:06:50.170Z,95165.23
2018-07-26T11:09:19.558Z,95163.23
2018-07-26T11:11:48.896Z,95166.91
2018-07-26T11:14:18.221Z,95163.55
2018-07-26T11:16:47.550Z,95163.45
2018-07-26T11:19:16.840Z,95158.08
2018-07-26T11:21:46.236Z,95158.58
2018-07-26T11:24:15.610Z,95154.62
2018-07-26T11:26:44.923Z,95154.20
2018-07-26T11:29:14.280Z,95153.34
2018-07-26T11:31:46.513Z,95166.31
2018-07-26T11:34:15.901Z,95158.98
2018-07-26T11:36:45.368Z,95154.41
2018-07-26T11:39:14.736Z,95150.94
2018-07-26T11:41:44.091Z,95149.34
2018-07-26T11:44:13.408Z,95149.64
2018-07-26T11:46:42.838Z,95144.14
2018-07-26T11:49:12.168Z,95145.71
2018-07-26T11:51:41.574Z,95143.97
2018-07-26T11:54:10.903Z,95152.63
2018-07-26T11:56:40.257Z,95149.88
2018-07-26T11:59:09.671Z,95143.66
2018-07-26T12:04:08.379Z,95138.07
2018-07-26T12:06:37.897Z,95134.31
2018-07-26T12:09:09.266Z,95136.34
2018-07-26T12:11:38.654Z,95136.11
2018-07-26T12:14:08.229Z,95134.01
2018-07-26T12:16:37.562Z,95134.45
2018-07-26T12:19:06.873Z,95136.13
2018-07-26T12:21:36.266Z,95122.43
2018-07-26T12:24:05.601Z,95127.70
2018-07-26T12:26:34.947Z,95127.08
2018-07-26T12:29:04.249Z,95120.25
2018-07-26T12:31:33.537Z,95119.89
2018-07-26T12:34:02.826Z,95116.95
2018-07-26T12:36:32.146Z,95108.58
2018-07-26T12:39:01.624Z,95111.14
2018-07-26T12:41:31.059Z,95113.77
2018-07-26T12:44:00.343Z,95110.63
2018-07-26T12:46:29.615Z,95103.00
2018-07-26T12:48:58.938Z,95106.37
2018-07-26T12:51:28.265Z,95101.72
2018-07-26T12:53:57.780Z,95097.25
2018-07-26T12:56:27.112Z,95098.24
2018-07-26T12:58:56.586Z,95083.99
2018-07-26T13:01:26.320Z,95086.06
2018-07-26T13:03:57.116Z,95095.69
2018-07-26T13:06:26.560Z,95095.42
2018-07-26T13:08:55.888Z,95091.86
2018-07-26T13:11:25.208Z,95088.36
2018-07-26T13:13:54.550Z,95091.80
2018-07-26T13:16:23.996Z,95092.77
2018-07-26T13:18:53.323Z,95093.78
2018-07-26T13:21:22.651Z,95093.84
2018-07-26T13:23:51.977Z,95089.47
2018-07-26T13:26:21.291Z,95090.92
2018-07-26T13:28:50.698Z,95082.48
2018-07-26T13:31:20.077Z,95081.28
2018-07-26T13:33:49.397Z,95070.72
2018-07-26T13:36:18.747Z,95084.61
2018-07-26T13:38:48.146Z,95074.17
2018-07-26T13:41:17.540Z,95075.82
2018-07-26T13:43:46.852Z,95077.21
2018-07-26T13:46:16.221Z,95072.65
2018-07-26T13:48:45.508Z,95079.06
2018-07-26T13:51:14.833Z,95072.41
2018-07-26T13:53:44.184Z,95073.09
2018-07-26T13:56:13.498Z,95068.36
2018-07-26T13:58:42.910Z,95064.34
2018-07-26T14:01:12.274Z,95054.23
2018-07-26T14:03:41.624Z,95061.48
2018-07-26T14:06:11.123Z,95059.48
2018-07-26T14:08:40.445Z,95062.08
2018-07-26T14:11:09.841Z,95057.67
2018-07-26T14:13:39.262Z,95055.08
2018-07-26T14:16:08.699Z,95056.70
2018-07-26T14:18:37.976Z,95062.46
2018-07-26T14:21:07.329Z,95058.88
2018-07-26T14:23:40.455Z,95059.61
2018-07-26T14:26:11.703Z,95060.44
2018-07-26T14:28:41.559Z,95047.80
2018-07-26T14:31:11.064Z,95054.44
2018-07-26T14:33:40.381Z,95043.47
2018-07-26T14:36:09.708Z,95042.20
2018-07-26T14:38:39.040Z,95035.94
2018-07-26T14:41:08.509Z,95039.58
2018-07-26T14:43:37.900Z,95041.16
2018-07-26T14:46:07.288Z,95030.14
2018-07-26T14:48:36.667Z,95037.77
2018-07-26T14:51:06.064Z,95035.45
2018-07-26T14:53:35.515Z,95043.62
2018-07-26T14:56:04.945Z,95031.07
2018-07-26T14:58:34.316Z,95021.94
2018-07-26T15:01:03.787Z,95021.88
2018-07-26T15:03:33.183Z,95028.94
2018-07-26T15:06:02.748Z,95036.44
2018-07-26T15:08:32.203Z,95025.40
2018-07-26T15:11:01.692Z,95028.96
2018-07-26T15:13:31.119Z,95027.33
2018-07-26T15:16:00.503Z,95025.22
2018-07-26T15:18:29.892Z,95039.28
2018-07-26T15:21:00.256Z,95035.14
2018-07-26T15:23:29.684Z,95030.70
2018-07-26T15:25:59.170Z,95027.47
2018-07-26T15:28:28.528Z,95020.11
2018-07-26T15:30:57.970Z,95020.81
2018-07-26T15:33:27.366Z,95031.22
2018-07-26T15:35:59.757Z,95028.27
2018-07-26T15:38:29.192Z,95034.77
2018-07-26T15:40:58.543Z,95024.17
2018-07-26T15:43:27.976Z,95020.40
2018-07-26T15:45:57.376Z,95024.55
2018-07-26T15:48:26.680Z,95018.14
2018-07-26T15:50:56.020Z,95018.42
2018-07-26T15:53:25.410Z,95015.34
2018-07-26T15:55:54.822Z,95020.95
2018-07-26T15:58:24.197Z,95020.53
2018-07-26T16:00:53.489Z,95022.51
2018-07-26T16:03:22.762Z,95021.48
2018-07-26T16:05:52.158Z,95024.59
2018-07-26T16:08:21.556Z,95022.27
2018-07-26T16:10:50.908Z,95029.75
2018-07-26T16:13:20.293Z,95029.36
2018-07-26T16:15:49.613Z,95021.47
2018-07-26T16:18:19.065Z,95033.90
2018-07-26T16:20:48.433Z,95026.25
2018-07-26T16:23:17.845Z,95032.80
2018-07-26T16:25:47.241Z,95023.45
2018-07-26T16:28:16.964Z,95022.70
2018-07-26T16:30:46.517Z,95025.81
2018-07-26T16:33:15.835Z,95021.36
2018-07-26T16:35:47.288Z,95019.52
2018-07-26T16:38:16.660Z,95017.63
2018-07-26T16:40:46.003Z,95021.92
2018-07-26T16:43:15.347Z,95017.11
2018-07-26T16:45:44.688Z,95021.86
2018-07-26T16:48:14.568Z,95020.23
2018-07-26T16:50:44.166Z,95016.87
2018-07-26T16:53:13.509Z,95023.04
2018-07-26T16:55:42.964Z,95024.09
2018-07-26T16:58:13.745Z,95018.77
2018-07-26T17:00:43.372Z,95015.66
2018-07-26T17:03:12.900Z,95015.73
2018-07-26T17:05:42.226Z,95017.66
2018-07-26T17:08:19.397Z,95015.41
2018-07-26T17:10:48.884Z,95019.98
2018-07-26T17:13:19.114Z,95018.55
2018-07-26T17:15:50.445Z,95014.91
2018-07-26T17:18:21.355Z,95012.53
2018-07-26T17:20:51.688Z,95024.03
2018-07-26T17:23:22.232Z,95012.58
2018-07-26T17:25:52.421Z,95021.15
2018-07-26T17:28:22.419Z,95018.05
2018-07-26T17:30:52.744Z,95019.55
2018-07-26T17:33:22.161Z,95017.92
2018-07-26T17:35:51.559Z,95017.30
2018-07-26T17:38:21.002Z,95019.35
2018-07-26T17:40:50.378Z,95025.83
2018-07-26T17:43:19.863Z,95024.56
2018-07-26T17:45:49.290Z,95028.18
2018-07-26T17:48:19.838Z,95024.97
2018-07-26T17:50:50.401Z,95032.94
2018-07-26T17:53:20.771Z,95027.12
2018-07-26T17:55:51.261Z,95029.30
2018-07-26T17:58:21.053Z,95034.69
2018-07-26T18:00:50.924Z,95035.80
2018-07-26T18:03:20.830Z,95031.73
2018-07-26T18:05:51.206Z,95037.78
2018-07-26T18:08:20.548Z,95048.16
2018-07-26T18:10:49.936Z,95041.38
2018-07-26T18:13:19.218Z,95038.89
2018-07-26T18:15:48.526Z,95037.72
2018-07-26T18:18:17.820Z,95042.80
2018-07-26T18:20:47.104Z,95046.48
2018-07-26T18:23:16.492Z,95052.45
2018-07-26T18:25:45.833Z,95052.66
2018-07-26T18:28:15.199Z,95053.87
2018-07-26T18:30:44.580Z,95053.41
2018-07-26T18:33:13.877Z,95052.33
2018-07-26T18:35:43.594Z,95054.60
2018-07-26T18:38:14.047Z,95059.30
2018-07-26T18:40:43.454Z,95053.52
2018-07-26T18:43:12.757Z,95055.27
2018-07-26T18:45:42.152Z,95058.59
2018-07-26T18:48:11.477Z,95060.59
2018-07-26T18:50:40.828Z,95065.54
2018-07-26T18:53:10.230Z,95068.20
2018-07-26T18:55:39.539Z,95076.26
2018-07-26T18:58:08.876Z,95077.52
2018-07-26T19:00:38.229Z,95079.75
2018-07-26T19:03:07.585Z,95081.72
2018-07-26T19:05:36.937Z,95087.88
2018-07-26T19:08:07.013Z,95099.57
2018-07-26T19:10:36.431Z,95087.14
2018-07-26T19:13:05.744Z,95087.88
2018-07-26T19:15:35.044Z,95092.49
2018-07-26T19:18:04.475Z,95094.59
2018-07-26T19:20:33.794Z,95093.73
2018-07-26T19:23:03.187Z,95094.77
2018-07-26T19:25:32.508Z,95090.56
2018-07-26T19:28:01.961Z,95099.79
2018-07-26T19:30:31.286Z,95100.58
2018-07-26T19:33:00.669Z,95101.52
2018-07-26T19:35:30.148Z,95103.98
2018-07-26T19:37:59.480Z,95107.55
2018-07-26T19:40:28.780Z,95108.64
2018-07-26T19:42:58.121Z,95113.77
2018-07-26T19:45:27.508Z,95104.56
2018-07-26T19:47:56.908Z,95111.48
2018-07-26T19:50:26.236Z,95114.91
2018-07-26T19:52:55.595Z,95112.44
2018-07-26T19:55:24.944Z,95113.48
2018-07-26T19:57:54.253Z,95117.42
2018-07-26T20:00:23.661Z,95114.47
2018-07-26T20:02:52.987Z,95119.17
2018-07-26T20:05:22.316Z,95117.97
2018-07-26T20:07:51.685Z,95125.28
2018-07-26T20:10:21.219Z,95121.28
2018-07-26T20:12:50.632Z,95121.28
2018-07-26T20:15:19.953Z,95123.90
2018-07-26T20:17:49.301Z,95127.05
2018-07-26T20:20:18.629Z,95135.08
2018-07-26T20:22:47.955Z,95126.09
2018-07-26T20:25:17.357Z,95129.55
2018-07-26T20:27:46.668Z,95136.30
2018-07-26T20:30:16.004Z,95130.67
2018-07-26T20:32:45.312Z,95130.45
2018-07-26T20:35:14.628Z,95128.34
2018-07-26T20:37:44.068Z,95131.80
2018-07-26T20:40:13.372Z,95135.06
2018-07-26T20:42:42.760Z,95132.91
2018-07-26T20:45:12.827Z,95138.49
2018-07-26T20:47:42.198Z,95142.81
2018-07-26T20:50:11.573Z,95143.63
2018-07-26T20:52:40.945Z,95147.23
2018-07-26T20:55:10.236Z,95141.39
2018-07-26T20:57:39.623Z,95142.41
2018-07-26T21:00:10.989Z,95148.95
2018-07-26T21:02:40.641Z,95144.77
2018-07-26T21:05:10.155Z,95149.33
2018-07-26T21:07:39.465Z,95147.66
2018-07-26T21:10:09.734Z,95155.02
2018-07-26T21:12:39.037Z,95154.49
2018-07-26T21:15:09.499Z,95155.48
2018-07-26T21:17:38.764Z,95156.22
2018-07-26T21:20:08.116Z,95149.27
2018-07-26T21:22:37.447Z,95157.59
2018-07-26T21:25:06.758Z,95165.30
2018-07-26T21:27:36.073Z,95166.56
2018-07-26T21:30:06.112Z,95160.70
2018-07-26T21:32:35.513Z,95160.72
2018-07-26T21:35:05.557Z,95158.52
2018-07-26T21:37:34.856Z,95159.55
2018-07-26T21:40:04.849Z,95160.42
2018-07-26T21:42:34.219Z,95161.91
2018-07-26T21:45:03.597Z,95157.72
2018-07-26T21:47:33.010Z,95151.66
2018-07-26T21:50:02.491Z,95165.33
2018-07-26T21:52:31.813Z,95167.39
2018-07-26T21:55:01.141Z,95166.86
2018-07-26T21:57:30.476Z,95169.67
2018-07-26T21:59:59.822Z,95167.72
2018-07-26T22:02:29.187Z,95172.48
2018-07-26T22:04:58.496Z,95163.83
2018-07-26T22:07:27.834Z,95163.33
2018-07-26T22:09:57.255Z,95164.74
2018-07-26T22:12:26.603Z,95162.66
2018-07-26T22:14:55.924Z,95166.59
2018-07-26T22:17:25.234Z,95164.22
2018-07-26T22:19:54.694Z,95162.69
2018-07-26T22:22:24.052Z,95164.02
2018-07-26T22:24:53.465Z,95163.50
2018-07-26T22:27:22.843Z,95166.48
2018-07-26T22:29:52.167Z,95166.20
2018-07-26T22:32:21.539Z,95167.33
2018-07-26T22:34:50.825Z,95168.19
2018-07-26T22:37:20.092Z,95165.92
2018-07-26T22:39:49.372Z,95170.78
2018-07-26T22:42:18.669Z,95177.98
2018-07-26T22:44:47.993Z,95166.72
2018-07-26T22:47:17.368Z,95183.25
2018-07-26T22:49:46.668Z,95181.20
2018-07-26T22:52:15.971Z,95184.98
2018-07-26T22:54:45.279Z,95178.13
2018-07-26T22:57:14.571Z,95177.36
2018-07-26T22:59:43.840Z,95181.42
2018-07-26T23:02:13.233Z,95177.88
2018-07-26T23:04:42.575Z,95182.83
2018-07-26T23:07:12.009Z,95187.07
2018-07-26T23:09:41.337Z,95184.19
2018-07-26T23:12:10.737Z,95184.72
2018-07-26T23:14:40.041Z,95195.99
2018-07-26T23:17:09.329Z,95193.34
2018-07-26T23:19:38.633Z,95189.59
2018-07-26T23:22:07.891Z,95187.70
2018-07-26T23:24:37.189Z,95186.63
2018-07-26T23:27:06.466Z,95182.39
2018-07-26T23:29:35.768Z,95184.29
2018-07-26T23:32:05.113Z,95188.58
2018-07-26T23:34:34.435Z,95183.81
2018-07-26T23:37:03.801Z,95183.59
2018-07-26T23:39:33.082Z,95179.09
2018-07-26T23:42:02.409Z,95177.67
2018-07-26T23:44:31.672Z,95174.56
2018-07-26T23:47:00.927Z,95178.72
2018-07-26T23:49:30.181Z,95175.86
2018-07-26T23:51:59.441Z,95167.80
2018-07-26T23:54:28.817Z,95175.91
2018-07-26T23:56:58.105Z,95175.44
2018-07-26T23:59:27.363Z,95174.13
